createdAt,value
2023-02-06T09:28:59.337Z,1.30
2023-02-06T09:31:27.519Z,1.30
2023-02-06T09:33:54.344Z,1.50
2023-02-06T09:36:21.956Z,1.60
2023-02-06T09:38:57.291Z,1.70
2023-02-06T09:41:31.059Z,1.80
2023-02-06T09:44:11.946Z,1.80
2023-02-06T09:46:57.497Z,1.90
2023-02-06T09:49:38.044Z,1.90
2023-02-06T09:52:31.875Z,2.10
2023-02-06T09:55:25.012Z,2.20
2023-02-06T09:58:02.299Z,2.40
2023-02-06T10:00:44.863Z,2.40
2023-02-06T10:03:27.597Z,2.40
2023-02-06T10:06:43.724Z,2.40
2023-02-06T10:09:19.670Z,2.40
2023-02-06T10:11:57.886Z,2.50
2023-02-06T10:14:48.200Z,2.50
2023-02-06T10:17:28.185Z,2.50
2023-02-06T10:20:18.151Z,2.60
2023-02-06T10:22:57.003Z,2.60
2023-02-06T10:25:27.232Z,2.60
2023-02-06T10:28:08.323Z,2.70
2023-02-06T10:31:06.322Z,2.70
2023-02-06T10:33:36.623Z,2.60
2023-02-06T10:36:23.352Z,2.70
2023-02-06T10:39:10.494Z,2.70
2023-02-06T10:41:55.459Z,2.70
2023-02-06T10:44:30.858Z,2.70
2023-02-06T10:46:58.179Z,2.80
2023-02-06T10:49:31.801Z,2.90
2023-02-06T10:52:02.249Z,3.00
2023-02-06T10:54:39.678Z,3.10
2023-02-06T10:57:18.279Z,3.00
2023-02-06T10:59:48.619Z,3.00
2023-02-06T11:02:39.055Z,3.00
2023-02-06T11:05:22.240Z,2.90
2023-02-06T11:07:53.767Z,3.00
2023-02-06T11:10:24.047Z,3.00
2023-02-06T11:12:57.965Z,2.90
2023-02-06T11:16:00.807Z,2.90
2023-02-06T11:18:39.927Z,2.80
2023-02-06T11:21:09.107Z,2.90
2023-02-06T11:23:36.477Z,3.00
2023-02-06T11:26:23.147Z,3.10
2023-02-06T11:29:16.780Z,3.10
2023-02-06T11:31:51.478Z,3.10
2023-02-06T11:34:34.068Z,3.10
2023-02-06T11:37:07.207Z,3.20
2023-02-06T11:39:38.945Z,3.30
2023-02-06T11:42:22.482Z,3.40
2023-02-06T11:44:49.642Z,3.50
2023-02-06T11:47:37.422Z,3.40
2023-02-06T11:50:13.729Z,3.50
2023-02-06T11:52:47.086Z,3.60
2023-02-06T11:55:34.555Z,3.70
2023-02-06T11:58:06.166Z,3.70
2023-02-06T12:00:36.995Z,3.60
2023-02-06T12:03:07.489Z,3.60
2023-02-06T12:05:40.506Z,3.40
2023-02-06T12:08:18.480Z,3.40
2023-02-06T12:10:57.152Z,3.30
2023-02-06T12:13:30.904Z,3.30
2023-02-06T12:16:01.984Z,3.20
2023-02-06T12:18:43.768Z,3.10
2023-02-06T12:21:27.415Z,3.00
2023-02-06T12:24:02.188Z,3.10
2023-02-06T12:26:30.803Z,3.10
2023-02-06T12:29:13.060Z,3.00
2023-02-06T12:31:59.151Z,3.10
2023-02-06T12:35:04.556Z,3.20
2023-02-06T12:37:41.120Z,3.40
2023-02-06T12:40:41.381Z,3.50
2023-02-06T12:43:13.732Z,3.50
2023-02-06T12:45:49.583Z,3.40
2023-02-06T12:48:28.710Z,3.40
2023-02-06T12:51:16.720Z,3.40
2023-02-06T12:53:59.014Z,3.30
2023-02-06T12:56:45.946Z,3.40
2023-02-06T12:59:31.440Z,3.50
2023-02-06T13:02:37.536Z,3.50
2023-02-06T13:05:21.965Z,3.60
2023-02-06T13:08:00.119Z,3.60
2023-02-06T13:10:33.697Z,3.60
2023-02-06T13:13:02.868Z,3.60
2023-02-06T13:15:41.172Z,3.60
2023-02-06T13:18:39.300Z,3.70
2023-02-06T13:21:18.441Z,3.80
2023-02-06T13:24:13.832Z,3.80
2023-02-06T13:26:47.829Z,3.70
2023-02-06T13:29:28.500Z,3.80
2023-02-06T13:32:18.369Z,4.00
2023-02-06T13:34:53.573Z,3.90
2023-02-06T13:37:20.260Z,3.80
2023-02-06T13:39:49.408Z,3.80
2023-02-06T13:42:39.524Z,3.80
2023-02-06T13:45:10.332Z,3.90
2023-02-06T13:47:52.126Z,3.80
2023-02-06T13:50:24.930Z,4.00
2023-02-06T13:53:22.179Z,4.30
2023-02-06T13:56:05.928Z,4.10
2023-02-06T13:58:43.248Z,3.90
2023-02-06T14:01:14.539Z,3.90
2023-02-06T14:03:49.866Z,3.80
2023-02-06T14:06:34.652Z,3.80
2023-02-06T14:09:32.392Z,3.80
2023-02-06T14:12:44.373Z,3.80
2023-02-06T14:15:11.136Z,3.70
2023-02-06T14:17:53.701Z,3.70
2023-02-06T14:20:33.994Z,3.70
2023-02-06T14:23:20.638Z,3.70
2023-02-06T14:26:46.857Z,3.60
2023-02-06T14:29:19.490Z,3.60
2023-02-06T14:32:11.275Z,3.60
2023-02-06T14:35:07.729Z,3.50
2023-02-06T14:37:53.210Z,3.40
2023-02-06T14:40:23.785Z,3.40
2023-02-06T14:42:53.600Z,3.30
2023-02-06T14:45:36.134Z,3.30
2023-02-06T14:48:30.841Z,3.30
2023-02-06T14:50:58.318Z,3.30
2023-02-06T14:53:29.281Z,3.20
2023-02-06T14:56:25.077Z,3.20
2023-02-06T14:58:51.812Z,3.20
2023-02-06T15:01:18.458Z,3.10
2023-02-06T15:03:47.510Z,3.00
2023-02-06T15:06:34.645Z,3.00
2023-02-06T15:09:02.260Z,3.00
2023-02-06T15:11:32.506Z,3.00
2023-02-06T15:14:04.307Z,2.90
2023-02-06T15:16:38.853Z,2.90
2023-02-06T15:19:11.020Z,2.90
2023-02-06T15:21:39.944Z,2.90
2023-02-06T15:24:26.861Z,2.90
2023-02-06T15:27:04.247Z,2.80
2023-02-06T15:29:32.055Z,2.80
2023-02-06T15:32:05.128Z,2.80
2023-02-06T15:34:32.381Z,2.80
2023-02-06T15:36:59.283Z,2.70
2023-02-06T15:39:26.344Z,2.70
2023-02-06T15:41:53.892Z,2.70
2023-02-06T15:44:33.466Z,2.60
2023-02-06T15:47:03.124Z,2.50
2023-02-06T15:49:43.254Z,2.40
2023-02-06T15:52:30.738Z,2.30
2023-02-06T15:54:58.613Z,2.20
2023-02-06T15:57:33.372Z,2.20
2023-02-06T16:00:00.984Z,2.10
2023-02-06T16:02:36.345Z,2.00
2023-02-06T16:05:05.913Z,1.80
2023-02-06T16:07:40.299Z,1.50
2023-02-06T16:10:26.427Z,1.40
2023-02-06T16:13:02.815Z,1.10
2023-02-06T16:15:35.783Z,0.90
2023-02-06T16:18:29.210Z,0.80
2023-02-06T16:21:27.355Z,0.50
2023-02-06T16:24:06.683Z,0.20
2023-02-06T16:37:54.790Z,-1.00
